Time;durP1;ratioP1;P1;durP2;ratioP2;P2;SDS_P1;SDS_P2;PMS_P1;PMS_P2;Temp;Humidity;BMP_temperature;BMP_pressure;BME280_temperature;BME280_humidity;BME280_pressure;Samples;Min_cycle;Max_cycle;Signal;HPM_P1;HPM_P2
2021/12/31 00:02:17;;;;;;;;;;;;;;;18.78;55.76;101756.91;5004511;28;20027;-41
2021/12/31 00:04:44;;;;;;;;;;;;;;;18.76;55.92;101753.50;5003624;28;19921;-41
2021/12/31 00:07:11;;;;;;;;;;;;;;;18.77;55.71;101760.56;5006481;28;20360;-41
2021/12/31 00:09:37;;;;;;;;;;;;;;;18.77;56.13;101763.25;5003836;28;19936;-41
2021/12/31 00:12:07;;;;;;;;;;;;;;;18.76;55.79;101750.81;5002671;28;19928;-41
2021/12/31 00:14:34;;;;;;;;;;;;;;;18.76;56.17;101761.56;5007072;28;20273;-42
2021/12/31 00:17:01;;;;;;;;;;;;;;;18.76;55.85;101763.41;5004670;28;19940;-41
2021/12/31 00:19:31;;;;;;;;;;;;;;;18.76;55.94;101771.47;5005056;28;19935;-41
2021/12/31 00:21:59;;;;;;;;;;;;;;;18.74;55.83;101756.34;5006713;28;19935;-41
2021/12/31 00:24:27;;;;;;;;;;;;;;;18.74;55.90;101763.56;4998682;28;19925;-41
2021/12/31 00:26:53;;;;;;;;;;;;;;;18.73;56.25;101760.03;5005180;28;19931;-41
2021/12/31 00:29:19;;;;;;;;;;;;;;;18.72;56.11;101760.13;5003092;28;19925;-41
2021/12/31 00:31:46;;;;;;;;;;;;;;;18.73;56.11;101761.81;5004071;28;19921;-41
2021/12/31 00:34:12;;;;;;;;;;;;;;;18.72;55.99;101774.41;5006149;28;20257;-41
2021/12/31 00:36:45;;;;;;;;;;;;;;;18.71;55.97;101775.41;5005894;28;20347;-41
2021/12/31 00:39:12;;;;;;;;;;;;;;;18.71;56.35;101772.72;5011692;28;20194;-41
2021/12/31 00:41:38;;;;;;;;;;;;;;;18.71;56.01;101770.03;5007457;28;19929;-41
2021/12/31 00:44:04;;;;;;;;;;;;;;;18.70;56.14;101772.88;5009076;28;20360;-41
2021/12/31 00:46:31;;;;;;;;;;;;;;;18.69;55.76;101769.28;5009800;28;20333;-41
2021/12/31 00:48:58;;;;;;;;;;;;;;;18.68;56.25;101762.19;5006638;28;19929;-41
2021/12/31 00:51:25;;;;;;;;;;;;;;;18.69;56.41;101771.97;5009307;28;19925;-40
2021/12/31 00:53:51;;;;;;;;;;;;;;;18.68;55.98;101770.25;5007782;28;19925;-40
2021/12/31 00:56:17;;;;;;;;;;;;;;;18.68;56.10;101772.09;5006492;28;19929;-40
2021/12/31 00:58:44;;;;;;;;;;;;;;;18.68;56.21;101772.94;5009342;28;20008;-40
2021/12/31 01:01:17;;;;;;;;;;;;;;;18.68;56.23;101769.41;5007425;28;20048;-40
2021/12/31 01:03:44;;;;;;;;;;;;;;;18.68;55.75;101772.94;5007289;28;19933;-40
2021/12/31 01:06:11;;;;;;;;;;;;;;;18.68;56.33;101764.03;5009255;28;19931;-40
2021/12/31 01:08:43;;;;;;;;;;;;;;;18.68;56.27;101775.63;5004964;28;20391;-41
2021/12/31 01:11:10;;;;;;;;;;;;;;;18.66;56.34;101769.56;5011224;28;20016;-40
2021/12/31 01:13:56;;;;;;;;;;;;;;;18.67;56.31;101776.63;5011915;28;20567;-40
2021/12/31 01:16:35;;;;;;;;;;;;;;;18.66;56.19;101780.31;5007819;28;19921;-40
2021/12/31 01:21:28;;;;;;;;;;;;;;;18.67;56.45;101765.88;5006519;28;21231;-41
2021/12/31 01:23:58;;;;;;;;;;;;;;;18.67;56.27;101768.56;5008636;28;19921;-41
2021/12/31 01:26:24;;;;;;;;;;;;;;;18.66;56.27;101774.94;5006760;28;19922;-41
2021/12/31 01:28:50;;;;;;;;;;;;;;;18.65;56.56;101786.66;5007463;28;19922;-41
2021/12/31 01:31:17;;;;;;;;;;;;;;;18.66;56.13;101782.16;5010545;28;19972;-41
2021/12/31 01:33:43;;;;;;;;;;;;;;;18.66;56.03;101793.72;5004876;28;19921;-40
2021/12/31 01:36:10;;;;;;;;;;;;;;;18.65;56.15;101788.47;5010403;28;19928;-41
2021/12/31 01:38:36;;;;;;;;;;;;;;;18.66;56.06;101785.69;5007129;28;19929;-41
2021/12/31 01:41:02;;;;;;;;;;;;;;;18.66;56.40;101787.50;5004586;28;19921;-41
2021/12/31 01:43:29;;;;;;;;;;;;;;;18.64;56.40;101787.63;5007777;28;19928;-41
2021/12/31 01:45:59;;;;;;;;;;;;;;;18.65;56.54;101794.72;5001934;28;19921;-41
2021/12/31 01:48:47;;;;;;;;;;;;;;;18.65;56.45;101794.72;5007085;28;19921;-41
2021/12/31 01:51:13;;;;;;;;;;;;;;;18.65;56.24;101802.78;5008167;28;20220;-41
2021/12/31 01:53:40;;;;;;;;;;;;;;;18.64;56.42;101787.63;5005230;28;19931;-41
2021/12/31 01:56:06;;;;;;;;;;;;;;;18.64;56.49;101795.69;5007489;28;20339;-41
2021/12/31 01:58:33;;;;;;;;;;;;;;;18.64;56.26;101795.69;5009332;28;19948;-41
2021/12/31 02:01:03;;;;;;;;;;;;;;;18.64;56.58;101793.00;5006184;28;19928;-41
2021/12/31 02:03:32;;;;;;;;;;;;;;;18.61;56.20;101787.88;5008853;28;19969;-41
2021/12/31 02:05:58;;;;;;;;;;;;;;;18.62;56.24;101784.25;5005074;28;19957;-41
2021/12/31 02:08:25;;;;;;;;;;;;;;;18.62;55.96;101788.75;5006889;28;20336;-41
2021/12/31 02:10:52;;;;;;;;;;;;;;;18.62;56.25;101783.41;5004739;28;20515;-41
2021/12/31 02:13:19;;;;;;;;;;;;;;;18.62;56.28;101781.56;5007234;28;19925;-41
2021/12/31 02:15:45;;;;;;;;;;;;;;;18.61;56.16;101771.78;5007036;28;20015;-41
2021/12/31 02:18:12;;;;;;;;;;;;;;;18.63;56.18;101779.72;5005819;28;19925;-41
2021/12/31 02:20:44;;;;;;;;;;;;;;;18.63;56.28;101783.25;5004435;28;20436;-41
2021/12/31 02:23:16;;;;;;;;;;;;;;;18.62;56.24;101776.19;5007865;28;19921;-41
2021/12/31 02:25:43;;;;;;;;;;;;;;;18.63;56.17;101787.78;5003914;28;20016;-41
2021/12/31 02:28:09;;;;;;;;;;;;;;;18.62;56.19;101778.03;5004999;28;19928;-41
2021/12/31 02:30:36;;;;;;;;;;;;;;;18.61;56.50;101776.31;5002853;28;19935;-41
2021/12/31 02:33:03;;;;;;;;;;;;;;;18.62;56.53;101784.25;5006611;28;19929;-41
2021/12/31 02:35:33;;;;;;;;;;;;;;;18.61;56.61;101782.53;5007547;28;19921;-41
2021/12/31 02:38:00;;;;;;;;;;;;;;;18.61;56.17;101782.53;5004973;28;20004;-40
2021/12/31 02:40:28;;;;;;;;;;;;;;;18.60;56.07;101774.59;5006445;28;20212;-41
2021/12/31 02:42:56;;;;;;;;;;;;;;;18.61;56.49;101784.34;5006098;28;19976;-40
2021/12/31 02:45:29;;;;;;;;;;;;;;;18.60;56.46;101779.97;5005826;28;19935;-40
2021/12/31 02:47:57;;;;;;;;;;;;;;;18.59;56.05;101779.13;5006651;28;20221;-40
2021/12/31 02:50:33;;;;;;;;;;;;;;;18.59;56.26;101781.81;5005512;28;20309;-41
2021/12/31 02:53:04;;;;;;;;;;;;;;;18.59;56.16;101789.88;5002860;28;20013;-41
2021/12/31 02:55:30;;;;;;;;;;;;;;;18.58;56.38;101782.81;5004106;28;19921;-40
2021/12/31 02:57:57;;;;;;;;;;;;;;;18.58;56.51;101790.88;5003620;28;19921;-40
2021/12/31 03:00:24;;;;;;;;;;;;;;;18.59;56.23;101784.50;5006738;28;19921;-40
2021/12/31 03:02:51;;;;;;;;;;;;;;;18.59;56.53;101779.13;5005245;28;20187;-40
2021/12/31 03:05:18;;;;;;;;;;;;;;;18.58;56.12;101785.50;5002344;28;20012;-40
2021/12/31 03:07:46;;;;;;;;;;;;;;;18.59;56.36;101780.97;5005035;28;19935;-40
2021/12/31 03:10:13;;;;;;;;;;;;;;;18.58;56.16;101780.13;5002594;28;20044;-40
2021/12/31 03:12:41;;;;;;;;;;;;;;;18.58;55.96;101785.50;5006495;28;19925;-40
2021/12/31 03:15:08;;;;;;;;;;;;;;;18.57;56.46;101781.09;5005806;28;19936;-40
2021/12/31 03:17:35;;;;;;;;;;;;;;;18.58;56.59;101782.81;5007108;28;19936;-40
2021/12/31 03:20:12;;;;;;;;;;;;;;;18.58;56.14;101777.44;5006963;28;20291;-40
2021/12/31 03:22:39;;;;;;;;;;;;;;;18.57;56.46;101764.13;5005135;28;20224;-40
2021/12/31 03:25:06;;;;;;;;;;;;;;;18.57;56.09;101758.75;5001848;28;19922;-40
2021/12/31 03:27:33;;;;;;;;;;;;;;;18.58;56.07;101752.44;5007387;28;19926;-40
2021/12/31 03:29:59;;;;;;;;;;;;;;;18.57;56.47;101748.03;5007944;28;19921;-40
2021/12/31 03:32:29;;;;;;;;;;;;;;;18.57;56.33;101735.44;5007136;28;20339;-40
2021/12/31 03:34:55;;;;;;;;;;;;;;;18.57;56.03;101742.66;5005671;28;19929;-41
2021/12/31 03:37:22;;;;;;;;;;;;;;;18.56;56.14;101744.50;5006518;28;19979;-40
2021/12/31 03:39:48;;;;;;;;;;;;;;;18.56;55.95;101747.19;5007037;28;19983;-43
2021/12/31 03:42:16;;;;;;;;;;;;;;;18.57;56.37;101754.25;5004982;28;19929;-41
2021/12/31 03:44:42;;;;;;;;;;;;;;;18.56;55.82;101757.06;5003126;28;19941;-41
2021/12/31 03:47:09;;;;;;;;;;;;;;;18.57;56.12;101753.38;5005532;28;19925;-40
2021/12/31 03:49:35;;;;;;;;;;;;;;;18.55;56.31;101750.84;5004319;28;20683;-41
2021/12/31 03:52:02;;;;;;;;;;;;;;;18.55;56.08;101750.84;5006775;28;19936;-41
2021/12/31 03:54:28;;;;;;;;;;;;;;;18.55;56.34;101755.38;5002538;28;19936;-41
2021/12/31 03:56:54;;;;;;;;;;;;;;;18.55;56.37;101745.47;5004208;28;20361;-41
2021/12/31 03:59:21;;;;;;;;;;;;;;;18.56;56.29;101759.75;5004423;28;19921;-41
2021/12/31 04:01:47;;;;;;;;;;;;;;;18.55;56.04;101755.38;5004795;28;19928;-41
2021/12/31 04:04:14;;;;;;;;;;;;;;;18.55;56.37;101750.84;5005262;28;19940;-41
2021/12/31 04:06:40;;;;;;;;;;;;;;;18.55;55.98;101758.91;5007026;28;19928;-41
2021/12/31 04:09:07;;;;;;;;;;;;;;;18.55;55.97;101747.31;5004831;28;20012;-41
2021/12/31 04:11:33;;;;;;;;;;;;;;;18.54;56.29;101754.53;5010279;28;19929;-41
2021/12/31 04:13:59;;;;;;;;;;;;;;;18.54;56.14;101749.16;5006237;28;19928;-41
2021/12/31 04:16:26;;;;;;;;;;;;;;;18.53;55.96;101755.50;5012137;28;19925;-41
2021/12/31 04:18:52;;;;;;;;;;;;;;;18.54;55.90;101757.22;5009993;28;20373;-41
2021/12/31 04:21:21;;;;;;;;;;;;;;;18.53;55.99;101747.44;5009379;28;20195;-41
2021/12/31 04:23:50;;;;;;;;;;;;;;;18.53;55.81;101752.81;5008840;28;20462;-41
2021/12/31 04:26:16;;;;;;;;;;;;;;;18.53;55.86;101744.75;5006691;28;20226;-41
2021/12/31 04:28:43;;;;;;;;;;;;;;;18.53;56.05;101733.16;5011014;28;19921;-41
2021/12/31 04:31:10;;;;;;;;;;;;;;;18.53;56.30;101743.91;5007279;28;19922;-41
2021/12/31 04:33:37;;;;;;;;;;;;;;;18.52;55.86;101740.38;5009006;28;20008;-41
2021/12/31 04:36:03;;;;;;;;;;;;;;;18.53;56.15;101743.91;5008826;28;20019;-41
2021/12/31 04:38:30;;;;;;;;;;;;;;;18.52;56.34;101739.53;5006995;28;19936;-40
2021/12/31 04:40:56;;;;;;;;;;;;;;;18.52;56.15;101735.00;5007970;28;19921;-41
2021/12/31 04:43:22;;;;;;;;;;;;;;;18.52;56.10;101729.63;5004191;28;19930;-41
2021/12/31 04:45:49;;;;;;;;;;;;;;;18.52;55.93;101731.47;5007535;28;19921;-41
2021/12/31 04:48:15;;;;;;;;;;;;;;;18.51;56.03;101733.31;5010115;28;19944;-41
2021/12/31 04:50:42;;;;;;;;;;;;;;;18.50;55.81;101737.84;5005162;28;20016;-41
2021/12/31 04:53:08;;;;;;;;;;;;;;;18.50;55.36;101724.41;5008263;28;19925;-41
2021/12/31 04:55:35;;;;;;;;;;;;;;;18.50;55.76;101718.19;5008529;28;19921;-41
2021/12/31 04:58:01;;;;;;;;;;;;;;;18.50;55.64;101710.16;5006765;28;20472;-41
2021/12/31 05:00:27;;;;;;;;;;;;;;;18.50;55.94;101699.41;5009764;28;19925;-41
2021/12/31 05:02:54;;;;;;;;;;;;;;;18.49;56.20;101712.00;5005782;28;19929;-41
2021/12/31 05:05:20;;;;;;;;;;;;;;;18.49;55.91;101689.63;5009256;28;19921;-41
2021/12/31 05:07:47;;;;;;;;;;;;;;;18.48;55.79;101690.63;5010078;28;19921;-41
2021/12/31 05:10:15;;;;;;;;;;;;;;;18.47;56.17;101692.47;5006216;28;19922;-41
2021/12/31 05:12:41;;;;;;;;;;;;;;;18.48;56.22;101690.63;5010886;28;20454;-41
2021/12/31 05:15:08;;;;;;;;;;;;;;;18.46;56.02;101688.09;5008253;28;19925;-41
2021/12/31 05:17:35;;;;;;;;;;;;;;;18.45;55.59;101694.44;5011903;28;20309;-41
2021/12/31 05:20:03;;;;;;;;;;;;;;;18.46;55.74;101687.25;5008939;28;19955;-41
2021/12/31 05:22:29;;;;;;;;;;;;;;;18.46;56.21;101692.63;5006673;28;19949;-41
2021/12/31 05:24:55;;;;;;;;;;;;;;;18.46;56.56;101695.31;5006824;28;20207;-41
2021/12/31 05:27:22;;;;;;;;;;;;;;;18.44;55.63;101695.41;5004425;28;19951;-41
2021/12/31 05:29:48;;;;;;;;;;;;;;;18.44;55.85;101690.03;5008641;28;19932;-41
2021/12/31 05:32:14;;;;;;;;;;;;;;;18.45;56.22;101688.22;5006505;28;19922;-41
2021/12/31 05:34:41;;;;;;;;;;;;;;;18.44;55.82;101697.25;5005267;28;20341;-41
2021/12/31 05:37:07;;;;;;;;;;;;;;;18.43;56.26;101700.94;5009182;28;19932;-41
2021/12/31 05:39:33;;;;;;;;;;;;;;;18.43;55.83;101698.25;5005609;28;20231;-41
2021/12/31 05:42:00;;;;;;;;;;;;;;;18.43;56.23;101696.41;5007413;28;19926;-41
2021/12/31 05:44:26;;;;;;;;;;;;;;;18.42;56.08;101701.94;5007316;28;19926;-41
2021/12/31 05:46:55;;;;;;;;;;;;;;;18.40;56.10;101699.34;5005959;28;20020;-41
2021/12/31 05:49:27;;;;;;;;;;;;;;;18.42;56.17;101701.94;5008277;28;19921;-41
2021/12/31 05:51:53;;;;;;;;;;;;;;;18.41;55.79;101706.44;5006373;28;19932;-41
2021/12/31 05:54:19;;;;;;;;;;;;;;;18.41;56.09;101679.59;5003816;28;20273;-41
2021/12/31 05:56:46;;;;;;;;;;;;;;;18.41;55.89;101695.72;5005487;28;19965;-41
2021/12/31 05:59:13;;;;;;;;;;;;;;;18.40;55.89;101696.66;5002828;28;20019;-41
2021/12/31 06:01:44;;;;;;;;;;;;;;;18.40;55.54;101698.50;5006030;28;19921;-41
2021/12/31 06:04:11;;;;;;;;;;;;;;;18.39;55.85;101691.44;5005382;28;19960;-41
2021/12/31 06:06:37;;;;;;;;;;;;;;;18.40;56.08;101703.88;5006386;28;19928;-41
2021/12/31 06:09:05;;;;;;;;;;;;;;;18.39;55.54;101712.91;5006916;28;19925;-41
2021/12/31 06:11:32;;;;;;;;;;;;;;;18.39;55.98;101715.59;5007155;28;19925;-41
2021/12/31 06:14:03;;;;;;;;;;;;;;;18.39;56.02;101710.25;5006368;28;19935;-41
2021/12/31 06:16:36;;;;;;;;;;;;;;;18.39;55.81;101710.25;5007254;28;20209;-41
2021/12/31 06:19:04;;;;;;;;;;;;;;;18.38;55.82;101687.06;5002655;28;19941;-41
2021/12/31 06:21:32;;;;;;;;;;;;;;;18.38;55.94;101695.13;5004952;28;20551;-41
2021/12/31 06:23:58;;;;;;;;;;;;;;;18.37;55.43;101682.66;5003290;28;19929;-40
2021/12/31 06:26:28;;;;;;;;;;;;;;;18.36;55.68;101672.94;5005286;28;19922;-40
2021/12/31 06:28:54;;;;;;;;;;;;;;;18.36;55.59;101672.94;5004047;28;19928;-40
2021/12/31 06:31:21;;;;;;;;;;;;;;;18.36;56.00;101675.59;5006282;28;20012;-40
2021/12/31 06:33:47;;;;;;;;;;;;;;;18.36;55.95;101664.88;5007066;28;19961;-40
2021/12/31 06:36:14;;;;;;;;;;;;;;;18.35;55.83;101673.91;5004479;28;19931;-40
2021/12/31 06:38:41;;;;;;;;;;;;;;;18.34;55.95;101678.44;5001029;28;20332;-40
2021/12/31 06:41:07;;;;;;;;;;;;;;;18.35;55.74;101668.56;5005729;28;19936;-40
2021/12/31 06:43:33;;;;;;;;;;;;;;;18.33;56.04;101668.69;5005762;28;19929;-41
2021/12/31 06:46:00;;;;;;;;;;;;;;;18.34;56.31;101666.84;5003287;28;19932;-40
2021/12/31 06:48:26;;;;;;;;;;;;;;;18.33;55.90;101659.78;5005382;28;20056;-41
2021/12/31 06:50:52;;;;;;;;;;;;;;;18.32;55.86;101650.88;5005021;28;19930;-40
2021/12/31 06:53:19;;;;;;;;;;;;;;;18.32;55.72;101644.66;5004963;28;19993;-40
2021/12/31 06:55:45;;;;;;;;;;;;;;;18.32;55.76;101650.03;4999171;28;21393;-40
2021/12/31 06:58:12;;;;;;;;;;;;;;;18.30;55.57;101643.97;5003664;28;20462;-40
2021/12/31 07:00:38;;;;;;;;;;;;;;;18.31;55.95;101662.59;5003638;28;20183;-40
2021/12/31 07:03:05;;;;;;;;;;;;;;;18.30;55.83;101650.19;5002646;28;19972;-40
2021/12/31 07:05:31;;;;;;;;;;;;;;;18.30;55.67;101654.69;5003339;28;20036;-40
2021/12/31 07:07:58;;;;;;;;;;;;;;;18.30;55.93;101662.75;5001872;28;20003;-41
2021/12/31 07:10:29;;;;;;;;;;;;;;;18.29;55.60;101658.34;5003258;28;20070;-41
2021/12/31 07:12:59;;;;;;;;;;;;;;;18.28;56.03;101662.88;5007172;28;19947;-40
2021/12/31 07:15:25;;;;;;;;;;;;;;;18.29;55.81;101667.28;5004256;28;19922;-40
2021/12/31 07:17:52;;;;;;;;;;;;;;;18.28;55.66;101673.59;5007806;28;20353;-40
2021/12/31 07:20:19;;;;;;;;;;;;;;;18.28;55.88;101672.75;5002914;28;19929;-40
2021/12/31 07:22:46;;;;;;;;;;;;;;;18.29;55.81;101690.53;5004659;28;20038;-41
2021/12/31 07:25:12;;;;;;;;;;;;;;;18.29;55.76;101685.19;5003400;28;19921;-41
2021/12/31 07:27:38;;;;;;;;;;;;;;;18.28;55.44;101692.38;5008558;28;19921;-41
2021/12/31 07:30:05;;;;;;;;;;;;;;;18.28;55.68;101691.53;5005428;28;19929;-40
2021/12/31 07:32:37;;;;;;;;;;;;;;;18.28;55.96;101696.91;5005537;28;20238;-40
2021/12/31 07:35:04;;;;;;;;;;;;;;;18.25;55.71;101682.78;5004379;28;20520;-40
2021/12/31 07:37:31;;;;;;;;;;;;;;;18.27;55.79;101695.22;5007518;28;19928;-40
2021/12/31 07:40:04;;;;;;;;;;;;;;;18.26;55.89;101694.38;5003012;28;19928;-40
2021/12/31 07:42:30;;;;;;;;;;;;;;;18.25;55.36;101701.56;5004719;28;19922;-40
2021/12/31 07:44:57;;;;;;;;;;;;;;;18.26;55.52;101691.69;5007939;28;19932;-41
2021/12/31 07:47:23;;;;;;;;;;;;;;;18.27;55.29;101698.75;5008781;28;19921;-40
2021/12/31 07:49:49;;;;;;;;;;;;;;;18.27;55.61;101695.22;5010307;28;19933;-40
2021/12/31 07:52:16;;;;;;;;;;;;;;;18.25;55.20;101690.84;5006238;28;20365;-40
2021/12/31 07:54:42;;;;;;;;;;;;;;;18.25;55.43;101700.69;5006689;28;19932;-40
2021/12/31 07:57:08;;;;;;;;;;;;;;;18.25;55.32;101696.22;5008745;28;19925;-40
2021/12/31 07:59:35;;;;;;;;;;;;;;;18.24;54.99;101697.16;5006559;28;19929;-41
2021/12/31 08:02:01;;;;;;;;;;;;;;;18.24;55.02;101686.44;5009343;28;20548;-40
2021/12/31 08:04:31;;;;;;;;;;;;;;;18.24;55.09;101707.91;5007222;28;19930;-40
2021/12/31 08:06:57;;;;;;;;;;;;;;;18.22;55.14;101688.41;5003784;28;20016;-40
2021/12/31 08:09:24;;;;;;;;;;;;;;;18.23;55.42;101695.47;5005072;28;19925;-40
2021/12/31 08:11:50;;;;;;;;;;;;;;;18.22;55.49;101685.72;5004817;28;19988;-40
2021/12/31 08:14:17;;;;;;;;;;;;;;;18.23;55.30;101697.31;5009894;28;19949;-40
2021/12/31 08:16:44;;;;;;;;;;;;;;;18.22;55.42;101711.72;5005274;28;20173;-40
2021/12/31 08:19:10;;;;;;;;;;;;;;;18.21;55.48;101702.81;5006578;28;20008;-40
2021/12/31 08:21:36;;;;;;;;;;;;;;;18.21;55.14;101702.81;5006727;28;20325;-40
2021/12/31 08:24:03;;;;;;;;;;;;;;;18.20;55.66;101703.78;5003984;28;20040;-40
2021/12/31 08:26:29;;;;;;;;;;;;;;;18.21;55.14;101712.69;5010398;28;20324;-40
2021/12/31 08:28:56;;;;;;;;;;;;;;;18.21;55.59;101726.97;5008275;28;19921;-40
2021/12/31 08:31:22;;;;;;;;;;;;;;;18.20;55.18;101719.88;5006088;28;20024;-40
2021/12/31 08:33:49;;;;;;;;;;;;;;;18.20;55.59;101725.25;5008084;28;20428;-40
2021/12/31 08:36:15;;;;;;;;;;;;;;;18.22;55.37;101722.44;5005715;28;20193;-41
2021/12/31 08:38:42;;;;;;;;;;;;;;;18.21;55.74;101718.94;5010304;28;19925;-41
2021/12/31 08:41:08;;;;;;;;;;;;;;;18.21;55.58;101715.38;5005869;28;19936;-41
2021/12/31 08:43:55;;;;;;;;;;;;;;;18.20;55.15;101711.84;5002240;28;19925;-41
2021/12/31 08:46:22;;;;;;;;;;;;;;;18.20;55.49;101706.47;5008208;28;19929;-41
2021/12/31 08:48:49;;;;;;;;;;;;;;;18.21;55.17;101707.31;5003865;28;19941;-40
2021/12/31 08:51:15;;;;;;;;;;;;;;;18.21;55.13;101708.19;5007181;28;20002;-42
2021/12/31 08:53:41;;;;;;;;;;;;;;;18.22;55.02;101701.00;5006634;28;19925;-41
2021/12/31 08:56:08;;;;;;;;;;;;;;;18.21;55.35;101705.50;5005060;28;19925;-41
2021/12/31 08:58:35;;;;;;;;;;;;;;;18.20;55.22;101711.84;5005995;28;20315;-41
2021/12/31 09:01:01;;;;;;;;;;;;;;;18.20;54.96;101711.84;5002795;28;19929;-41
2021/12/31 09:03:28;;;;;;;;;;;;;;;18.20;55.25;101713.66;5003505;28;19922;-41
2021/12/31 09:05:54;;;;;;;;;;;;;;;18.21;54.90;101710.88;5005754;28;19948;-42
2021/12/31 09:08:23;;;;;;;;;;;;;;;18.21;55.40;101693.91;5003882;28;19921;-41
2021/12/31 09:10:50;;;;;;;;;;;;;;;18.19;55.41;101696.72;5003088;28;20388;-41
2021/12/31 09:13:16;;;;;;;;;;;;;;;18.20;54.87;101713.66;5007527;28;20210;-41
2021/12/31 09:15:43;;;;;;;;;;;;;;;18.20;55.13;101722.56;5005510;28;20012;-41
2021/12/31 09:18:09;;;;;;;;;;;;;;;18.21;54.96;101723.41;5005243;28;19936;-40
2021/12/31 09:20:35;;;;;;;;;;;;;;;18.21;54.96;101724.28;5004170;28;19925;-41
2021/12/31 09:23:02;;;;;;;;;;;;;;;18.21;55.21;101720.72;5008989;28;19931;-41
2021/12/31 09:25:28;;;;;;;;;;;;;;;18.21;55.09;101713.56;5005211;28;19929;-41
2021/12/31 09:27:55;;;;;;;;;;;;;;;18.23;55.53;101708.03;5002214;28;20011;-41
2021/12/31 09:30:22;;;;;;;;;;;;;;;18.23;54.98;101718.78;5008328;28;20009;-41
2021/12/31 09:32:48;;;;;;;;;;;;;;;18.23;55.18;101743.78;5003134;28;19975;-41
2021/12/31 09:35:14;;;;;;;;;;;;;;;18.24;54.67;101750.84;5004403;28;20013;-41
2021/12/31 09:37:41;;;;;;;;;;;;;;;18.25;54.81;101763.28;5005672;28;19928;-41
2021/12/31 09:40:08;;;;;;;;;;;;;;;18.25;54.63;101765.97;5004507;28;19929;-41
2021/12/31 09:42:36;;;;;;;;;;;;;;;18.25;55.17;101762.41;5007899;28;20380;-41
2021/12/31 09:45:02;;;;;;;;;;;;;;;18.24;54.86;101764.25;5007407;28;19968;-41
2021/12/31 09:47:29;;;;;;;;;;;;;;;18.24;54.56;101766.09;5004191;28;19925;-40
2021/12/31 09:49:55;;;;;;;;;;;;;;;18.23;54.95;101749.13;5004904;28;19926;-41
2021/12/31 09:52:22;;;;;;;;;;;;;;;18.24;55.06;101745.47;5007924;28;19925;-41
2021/12/31 09:54:49;;;;;;;;;;;;;;;18.22;54.92;101744.75;5000731;28;20388;-40
2021/12/31 09:57:17;;;;;;;;;;;;;;;18.22;54.89;101755.50;5005721;28;19921;-40
2021/12/31 09:59:43;;;;;;;;;;;;;;;18.23;54.98;101759.03;5005921;28;20311;-40
2021/12/31 10:02:10;;;;;;;;;;;;;;;18.23;55.03;101767.94;5003520;28;20008;-40
2021/12/31 10:04:53;;;;;;;;;;;;;;;18.23;55.28;101773.28;5004894;28;19983;-40
2021/12/31 10:07:21;;;;;;;;;;;;;;;18.23;54.65;101773.28;5002681;28;20349;-40
2021/12/31 10:10:06;;;;;;;;;;;;;;;18.24;55.00;101784.88;4999084;28;19930;-41
2021/12/31 10:12:44;;;;;;;;;;;;;;;18.24;54.33;101774.13;5003479;28;20019;-40
2021/12/31 10:15:11;;;;;;;;;;;;;;;18.25;54.90;101752.56;5006508;28;19926;-40
2021/12/31 10:17:37;;;;;;;;;;;;;;;18.26;54.83;101740.00;5003508;28;20004;-40
2021/12/31 10:20:04;;;;;;;;;;;;;;;18.27;54.54;101748.88;5003902;28;19927;-41
2021/12/31 10:22:30;;;;;;;;;;;;;;;18.27;54.82;101743.50;5004378;28;19921;-41
2021/12/31 10:24:57;;;;;;;;;;;;;;;18.26;54.62;101742.66;5002270;28;20329;-40
2021/12/31 10:27:25;;;;;;;;;;;;;;;18.28;54.62;101745.22;5000702;28;20373;-40
2021/12/31 10:29:52;;;;;;;;;;;;;;;18.27;54.97;101764.97;5000904;28;19927;-41
2021/12/31 10:32:19;;;;;;;;;;;;;;;18.27;54.71;101763.16;5004538;28;19921;-41
2021/12/31 10:34:46;;;;;;;;;;;;;;;18.27;54.60;101746.19;5004151;28;20008;-40
2021/12/31 10:37:17;;;;;;;;;;;;;;;18.27;nan;101730.94;4998340;28;19925;-41
2021/12/31 10:39:44;;;;;;;;;;;;;;;18.28;54.83;101737.16;5003925;28;19932;-41
2021/12/31 10:42:13;;;;;;;;;;;;;;;18.25;54.71;101723.03;5002712;28;20310;-41
2021/12/31 10:44:44;;;;;;;;;;;;;;;18.27;54.52;101719.38;5001695;28;19925;-41
2021/12/31 10:47:12;;;;;;;;;;;;;;;18.25;54.62;101701.56;5006635;28;20020;-40
2021/12/31 10:49:58;;;;;;;;;;;;;;;18.28;54.73;101686.16;4999282;28;19921;-40
2021/12/31 10:52:28;;;;;;;;;;;;;;;18.28;54.66;101640.53;5001559;28;19984;-40
2021/12/31 10:55:15;;;;;;;;;;;;;;;18.26;54.63;101627.28;5003561;28;19927;-40
2021/12/31 10:57:42;;;;;;;;;;;;;;;18.29;55.05;101664.59;5002755;28;19925;-41
2021/12/31 11:00:10;;;;;;;;;;;;;;;18.31;55.23;101677.84;5004584;28;19931;-40
2021/12/31 11:02:37;;;;;;;;;;;;;;;18.34;55.01;101677.59;5002897;28;19921;-41
2021/12/31 11:05:04;;;;;;;;;;;;;;;18.37;54.71;101690.72;4998546;28;19921;-40
2021/12/31 11:07:31;;;;;;;;;;;;;;;18.38;54.20;101709.41;5002103;28;19925;-41
2021/12/31 11:10:15;;;;;;;;;;;;;;;18.41;54.31;101695.72;5003949;28;20207;-40
2021/12/31 11:12:46;;;;;;;;;;;;;;;18.43;54.57;101693.72;5004925;28;19926;-40
2021/12/31 11:15:13;;;;;;;;;;;;;;;18.45;53.79;101707.00;5006018;28;19941;-40
2021/12/31 11:17:40;;;;;;;;;;;;;;;18.46;54.24;101719.47;5006075;28;20012;-40
2021/12/31 11:20:07;;;;;;;;;;;;;;;18.46;54.10;101700.66;4998322;28;20317;-40
2021/12/31 11:22:37;;;;;;;;;;;;;;;18.47;53.55;101722.00;5004831;28;20021;-40
2021/12/31 11:25:18;;;;;;;;;;;;;;;18.47;54.18;101713.09;5000836;28;19929;-40
2021/12/31 11:27:47;;;;;;;;;;;;;;;18.46;53.91;101706.88;5004455;28;19929;-40
2021/12/31 11:30:25;;;;;;;;;;;;;;;18.46;54.24;101706.03;5003594;28;20300;-40
2021/12/31 11:32:52;;;;;;;;;;;;;;;18.45;53.83;101710.56;5001176;28;19922;-40
2021/12/31 11:35:28;;;;;;;;;;;;;;;18.44;54.19;101702.63;5003519;28;20013;-40
2021/12/31 11:37:54;;;;;;;;;;;;;;;18.43;54.38;101719.72;4999057;28;19929;-40
2021/12/31 11:40:32;;;;;;;;;;;;;;;18.44;54.45;101721.41;5004165;28;20193;-40
2021/12/31 11:43:14;;;;;;;;;;;;;;;18.40;54.41;101715.47;5003035;28;19921;-40
2021/12/31 11:45:41;;;;;;;;;;;;;;;18.41;54.14;101709.13;5000417;28;19929;-40
2021/12/31 11:48:26;;;;;;;;;;;;;;;18.41;54.64;101716.31;5005887;28;20581;-40
2021/12/31 11:51:05;;;;;;;;;;;;;;;18.39;54.39;101731.72;5002994;28;20009;-40
2021/12/31 11:53:32;;;;;;;;;;;;;;;18.39;54.62;101721.81;5007980;28;19935;-40
2021/12/31 11:55:58;;;;;;;;;;;;;;;18.38;54.64;101727.34;5005665;28;20321;-40
2021/12/31 11:58:35;;;;;;;;;;;;;;;18.38;54.90;101720.13;5000226;28;20353;-40
2021/12/31 12:01:20;;;;;;;;;;;;;;;18.38;54.39;101722.81;5000239;28;19929;-41
2021/12/31 12:03:47;;;;;;;;;;;;;;;18.38;54.66;101720.13;5002809;28;20246;-40
2021/12/31 12:06:52;;;;;;;;;;;;;;;18.38;54.27;101713.91;5000175;28;19936;-40
2021/12/31 12:09:18;;;;;;;;;;;;;;;18.38;54.66;101719.28;5000902;28;19925;-41
2021/12/31 12:12:04;;;;;;;;;;;;;;;18.39;55.12;101703.03;5001544;28;19996;-41
2021/12/31 12:14:36;;;;;;;;;;;;;;;18.40;54.86;101714.63;5005271;28;19921;-41
2021/12/31 12:17:03;;;;;;;;;;;;;;;18.42;54.73;101718.88;5001224;28;19961;-41
2021/12/31 12:19:45;;;;;;;;;;;;;;;18.43;54.74;101719.72;5001934;28;19926;-41
2021/12/31 12:22:25;;;;;;;;;;;;;;;18.45;54.49;101723.09;5004370;28;20025;-40
2021/12/31 12:24:52;;;;;;;;;;;;;;;18.47;54.93;101710.41;5002563;28;19969;-40
2021/12/31 12:27:20;;;;;;;;;;;;;;;18.49;54.90;101716.47;5002316;28;19958;-40
2021/12/31 12:29:47;;;;;;;;;;;;;;;18.51;55.13;101714.53;4999758;28;20016;-41
2021/12/31 12:32:15;;;;;;;;;;;;;;;18.52;54.28;101713.53;5004986;28;19925;-40
2021/12/31 12:34:42;;;;;;;;;;;;;;;18.52;54.46;101726.09;5003407;28;19926;-40
2021/12/31 12:37:08;;;;;;;;;;;;;;;18.53;54.40;101730.47;5007545;28;21159;-40
2021/12/31 12:39:34;;;;;;;;;;;;;;;18.51;54.38;101736.00;5007062;28;19928;-40
2021/12/31 12:42:04;;;;;;;;;;;;;;;18.52;53.94;101732.31;5007482;28;19931;-40
2021/12/31 12:44:31;;;;;;;;;;;;;;;18.50;54.46;101731.63;5006770;28;19928;-40